This is the latest recevied weather packets stored in our database for station/object KC4MCQ-10. If no packets are shown the sender has not sent any weather packets the latest 10 day(s).
| Time | Temp. | Humidity | Pressure | Rain* | Wind** | Luminosity | Snow |
|---|---|---|---|---|---|---|---|
| 1787856898 | 25.56° C | 87% | 1017 hPa | 9.65 mm | 0.89 m/s, 148° | - | - |
| 1787856286 | 26.67° C | 82% | 1017 hPa | 9.4 mm | 3.13 m/s, 266° | - | - |
| 1787855676 | 28.33° C | 76% | 1016.9 hPa | 9.14 mm | 1.79 m/s, 231° | - | - |
| 1787855076 | 30° C | 72% | 1016.6 hPa | 9.14 mm | 2.24 m/s, 238° | - | - |
| 1787854456 | 33.33° C | 63% | 1016.2 hPa | 9.14 mm | 0.89 m/s, 279° | - | - |
| 1787853855 | 33.33° C | 63% | 1015.8 hPa | 9.14 mm | 0 m/s | - | - |
| 1787853254 | 32.78° C | 64% | 1015.7 hPa | 10.41 mm | 1.34 m/s, 265° | - | - |
| 1787852626 | 32.22° C | 65% | 1015.8 hPa | 10.41 mm | 1.34 m/s, 308° | - | - |
| 1787852016 | 32.22° C | 64% | 1016.3 hPa | 10.41 mm | 0.45 m/s, 218° | - | - |
| 1787850211 | 31.67° C | 70% | 1016.6 hPa | 10.41 mm | 1.34 m/s, 298° | - | - |
| 1787849594 | 31.67° C | 70% | 1016.9 hPa | 10.41 mm | 0.89 m/s, 309° | - | - |
| 1787848985 | 32.22° C | 68% | 1016.9 hPa | 10.41 mm | 0.89 m/s, 295° | - | - |
| 1787848381 | 31.67° C | 71% | 1017 hPa | 10.41 mm | 1.79 m/s, 294° | - | - |
| 1787847770 | 31.67° C | 71% | 1017.3 hPa | 10.41 mm | 0.89 m/s, 292° | - | - |
| 1787847169 | 31.11° C | 73% | 1017.2 hPa | 10.41 mm | 0.89 m/s, 277° | - | - |
| 1787846568 | 31.11° C | 73% | 1017.3 hPa | 10.41 mm | 1.79 m/s, 268° | - | - |
| 1787845967 | 30.56° C | 77% | 1017.5 hPa | 10.41 mm | 3.58 m/s, 322° | - | - |
| 1787845366 | 30.56° C | 76% | 1017.4 hPa | 10.41 mm | 1.79 m/s, 302° | - | - |
| 1787844765 | 30° C | 76% | 1017.3 hPa | 10.41 mm | 2.24 m/s, 290° | - | - |
| 1787844165 | 30° C | 77% | 1017.4 hPa | 10.41 mm | 1.79 m/s, 290° | - | - |
| 1787843564 | 30° C | 78% | 1017.6 hPa | 10.41 mm | 3.58 m/s, 310° | - | - |
| 1787842960 | 29.44° C | 80% | 1017.4 hPa | 10.41 mm | 1.34 m/s, 327° | - | - |
| 1787842359 | 29.44° C | 80% | 1017.4 hPa | 10.41 mm | 1.34 m/s, 286° | - | - |
| 1787841756 | 28.89° C | 81% | 1017.4 hPa | 10.41 mm | 1.34 m/s, 301° | - | - |
| 1787841155 | 28.89° C | 81% | 1017.4 hPa | 10.41 mm | 1.34 m/s, 254° | - | - |
* Rain latest 24 hours (hover to see other rain measurements)
** Current wind speed in m/s (hover to see current wind gust speed)